Norwegian Breakaway — C6ZJ3 — position and weather

sailwx.info

Track history (hours):
 
Tides and Currents Weather Stations Pressure Air Temp Water Temp Dewpoint Dewpoint Depression Visibility Wind Speed Wind Dir Waves Ship Positions

Norwegian Breakaway

Last reported at 2020-Sep-28 17:30 UTC. Time now 2020-Sep-29 08:56 UTC.
Position N 41°33' E 003°11'.

Length 325 m; draft 8.3 m.

Type: Passenger vessel. MMSI: 311050800.

Date/timePositionNaut miles runAvg speedWind from/ knotsBaromVisibWave heightAir tempDewpointWater temp
2020-Sep-28 17:30N 41°33' E 003°11'4 7.9
2020-Sep-28 16:59N 41°30' E 003°07'8 8.1
2020-Sep-28 16:00N 41°25' E 002°59'17 8.6
2020-Sep-28 13:59N 41°15' E 002°40'16 8.2
2020-Sep-28 12:00N 41°11' E 002°19'4 8.0
2020-Sep-28 11:31N 41°10' E 002°14'4 7.9
2020-Sep-28 11:00N 41°09' E 002°09'4 7.4
2020-Sep-28 10:31N 41°07' E 002°05'4 2.0
2020-Sep-28 08:30N 41°06' E 001°60'7 6.9
2020-Sep-28 07:30N 41°09' E 002°08'35 7.8
2020-Sep-28 03:00N 41°27' E 002°48'14 8.5
2020-Sep-28 01:23N 41°35' E 003°03'3 8.7
2020-Sep-28 01:00N 41°37' E 003°07'13 4.3
2020-Sep-27 22:00N 41°32' E 002°51'16 8.0
2020-Sep-27 20:00N 41°19' E 002°38'9 9.0
2020-Sep-27 19:00N 41°12' E 002°30'18 9.0
2020-Sep-27 17:00N 41°01' E 002°11'8 2.5
2020-Sep-27 14:01N 41°09' E 002°10'7 6.5
2020-Sep-27 13:00N 41°10' E 002°19'12 4.1
2020-Sep-27 10:00N 41°06' E 002°03'9 3.8
2020-Sep-27 07:30N 41°02' E 001°52'18 4.0
2020-Sep-27 03:00N 41°10' E 002°14'35 8.8
2020-Sep-26 23:00N 41°32' E 002°51'9 9.0
2020-Sep-26 22:00N 41°35' E 003°02'23 7.5
2020-Sep-26 19:00N 41°19' E 002°41'34 8.6
2020-Sep-26 15:00N 41°02' E 002°01'21 5.2
2020-Sep-26 11:00N 41°15' E 002°24'11 7.3
2020-Sep-26 09:30N 41°22' E 002°34'11 7.6
2020-Sep-26 08:00N 41°29' E 002°46'4 8.8
2020-Sep-26 07:30N 41°32' E 002°51'5 9.1
2020-Sep-26 06:58N 41°35' E 002°56'4 9.0
2020-Sep-26 06:30N 41°37' E 003°01'4 3.2
2020-Sep-26 05:21N 41°39' E 003°05'1 0.2
2020-Sep-26 00:12N 41°40' E 003°06'6 7.9
2020-Sep-25 23:30N 41°37' E 002°60'12 3.9
2020-Sep-25 20:30N 41°25' E 002°59'7 5.6
2020-Sep-25 19:13N 41°28' E 003°08'8 1.6
2020-Sep-25 14:30N 41°31' E 002°59'2 3.9
2020-Sep-25 14:00N 41°29' E 002°57'4 7.8
2020-Sep-25 13:28N 41°33' E 003°01'16 3.1
2020-Sep-25 08:26N 41°21' E 002°47'1617.6
2020-Sep-25 07:30N 41°10' E 002°30'917.1
2020-Sep-25 07:00N 41°02' E 002°29'9 8.7
2020-Sep-25 05:58N 40°55' E 002°37'2010.4
2020-Sep-25 04:00N 41°10' E 002°55'169 4.4
2020-Sep-23 13:58N 43°21' E 005°19'0 0.0
2020-Sep-21 13:37N 43°21' E 005°19'  
Track history (hours):
 
Tides and Currents Weather Stations Pressure Air Temp Water Temp Dewpoint Dewpoint Depression Visibility Wind Speed Wind Dir Waves Ship Positions

Norwegian Breakaway

Last reported at 2020-Sep-28 17:30 UTC. Time now 2020-Sep-29 08:56 UTC.
Position N 41°33' E 003°11'.

Length 325 m; draft 8.3 m.

Type: Passenger vessel. MMSI: 311050800.

Date/timePositionNaut miles runAvg speedWind from/ knotsBaromVisibWave heightAir tempDewpointWater temp
2020-Sep-28 17:30N 41°33' E 003°11'4 7.9
2020-Sep-28 16:59N 41°30' E 003°07'8 8.1
2020-Sep-28 16:00N 41°25' E 002°59'17 8.6
2020-Sep-28 13:59N 41°15' E 002°40'16 8.2
2020-Sep-28 12:00N 41°11' E 002°19'4 8.0
2020-Sep-28 11:31N 41°10' E 002°14'4 7.9
2020-Sep-28 11:00N 41°09' E 002°09'4 7.4
2020-Sep-28 10:31N 41°07' E 002°05'4 2.0
2020-Sep-28 08:30N 41°06' E 001°60'7 6.9
2020-Sep-28 07:30N 41°09' E 002°08'35 7.8
2020-Sep-28 03:00N 41°27' E 002°48'14 8.5
2020-Sep-28 01:23N 41°35' E 003°03'3 8.7
2020-Sep-28 01:00N 41°37' E 003°07'13 4.3
2020-Sep-27 22:00N 41°32' E 002°51'16 8.0
2020-Sep-27 20:00N 41°19' E 002°38'9 9.0
2020-Sep-27 19:00N 41°12' E 002°30'18 9.0
2020-Sep-27 17:00N 41°01' E 002°11'8 2.5
2020-Sep-27 14:01N 41°09' E 002°10'7 6.5
2020-Sep-27 13:00N 41°10' E 002°19'12 4.1
2020-Sep-27 10:00N 41°06' E 002°03'9 3.8
2020-Sep-27 07:30N 41°02' E 001°52'18 4.0
2020-Sep-27 03:00N 41°10' E 002°14'35 8.8
2020-Sep-26 23:00N 41°32' E 002°51'9 9.0
2020-Sep-26 22:00N 41°35' E 003°02'23 7.5
2020-Sep-26 19:00N 41°19' E 002°41'34 8.6
2020-Sep-26 15:00N 41°02' E 002°01'21 5.2
2020-Sep-26 11:00N 41°15' E 002°24'11 7.3
2020-Sep-26 09:30N 41°22' E 002°34'11 7.6
2020-Sep-26 08:00N 41°29' E 002°46'4 8.8
2020-Sep-26 07:30N 41°32' E 002°51'5 9.1
2020-Sep-26 06:58N 41°35' E 002°56'4 9.0
2020-Sep-26 06:30N 41°37' E 003°01'4 3.2
2020-Sep-26 05:21N 41°39' E 003°05'1 0.2
2020-Sep-26 00:12N 41°40' E 003°06'6 7.9
2020-Sep-25 23:30N 41°37' E 002°60'12 3.9
2020-Sep-25 20:30N 41°25' E 002°59'7 5.6
2020-Sep-25 19:13N 41°28' E 003°08'8 1.6
2020-Sep-25 14:30N 41°31' E 002°59'2 3.9
2020-Sep-25 14:00N 41°29' E 002°57'4 7.8
2020-Sep-25 13:28N 41°33' E 003°01'16 3.1
2020-Sep-25 08:26N 41°21' E 002°47'1617.6
2020-Sep-25 07:30N 41°10' E 002°30'917.1
2020-Sep-25 07:00N 41°02' E 002°29'9 8.7
2020-Sep-25 05:58N 40°55' E 002°37'2010.4
2020-Sep-25 04:00N 41°10' E 002°55'169 4.4
2020-Sep-23 13:58N 43°21' E 005°19'0 0.0
2020-Sep-21 13:37N 43°21' E 005°19'  

Dump ship's entire track history